Terminal Aerodrome Forecast
Issued by NWS Mt. Holly, NJ

Home | Current Version | Previous Version | Text Only | Print | Product List | Glossary On
Versions: 1 2 3 4 5 6 7 8 9 10 11 12 13 14 15 16 17
855
FTUS41 KPHI 110530
TAFACY
TAF
KACY 110530Z 1106/1206 29006KT P6SM FEW100 BKN200
     FM111000 VRB02KT P6SM BKN100
     FM111700 18007KT P6SM OVC070
     FM120400 17005KT 6SM -RA SCT007 OVC015=

USA.gov is the U.S. government's official web portal to all federal, state and local government web resources and services.